createdAt,value
2022-10-22T00:00:02.167Z,99559.44
2022-10-22T00:02:31.829Z,99365.16
2022-10-22T00:04:58.497Z,99482.16
2022-10-22T00:07:25.918Z,99568.97
2022-10-22T00:09:52.613Z,99619.84
2022-10-22T00:12:20.117Z,99578.38
2022-10-22T00:14:46.816Z,99557.88
2022-10-22T00:17:14.227Z,99553.63
2022-10-22T00:19:41.120Z,99432.56
2022-10-22T00:22:10.037Z,99541.00
2022-10-22T00:24:38.512Z,99527.28
2022-10-22T00:27:06.222Z,99502.34
2022-10-22T00:29:33.061Z,99518.72
2022-10-22T00:32:02.517Z,99523.31
2022-10-22T00:34:29.155Z,99440.09
2022-10-22T00:36:56.338Z,99498.03
2022-10-22T00:39:24.660Z,99411.03
2022-10-22T00:41:53.301Z,99379.28
2022-10-22T00:44:57.458Z,99490.06
2022-10-22T00:47:25.580Z,99499.47
2022-10-22T00:49:54.081Z,99479.53
2022-10-22T00:52:21.546Z,99404.03
2022-10-22T00:54:48.820Z,99486.88
2022-10-22T00:57:16.804Z,99478.97
2022-10-22T00:59:43.605Z,99449.53
2022-10-22T01:02:10.252Z,99467.09
2022-10-22T01:04:37.362Z,99463.88
2022-10-22T01:07:04.568Z,99458.94
2022-10-22T01:09:44.899Z,99451.97
2022-10-22T01:12:31.750Z,99277.38
2022-10-22T01:15:40.442Z,99425.13
2022-10-22T01:18:22.815Z,99314.78
2022-10-22T01:21:10.356Z,99314.72
2022-10-22T01:24:04.959Z,99447.06
2022-10-22T01:26:43.805Z,99450.19
2022-10-22T01:29:18.798Z,99462.41
2022-10-22T01:31:54.336Z,99346.22
2022-10-22T01:34:23.405Z,99490.91
2022-10-22T01:36:51.767Z,99398.75
2022-10-22T01:39:20.061Z,99368.44
2022-10-22T01:41:46.880Z,99415.22
2022-10-22T01:44:37.266Z,99413.72
2022-10-22T01:47:32.878Z,99412.41
2022-10-22T01:50:24.059Z,99408.28
2022-10-22T01:53:17.286Z,99402.22
2022-10-22T01:55:56.235Z,99396.16
2022-10-22T01:58:43.295Z,99478.50
2022-10-22T02:01:23.407Z,99277.25
2022-10-22T02:04:22.219Z,99389.59
2022-10-22T02:06:51.935Z,99393.09
2022-10-22T02:09:21.798Z,99400.00
2022-10-22T02:11:49.734Z,99283.66
2022-10-22T02:14:19.277Z,99288.81
2022-10-22T02:16:48.742Z,99394.63
2022-10-22T02:19:24.227Z,99392.06
2022-10-22T02:21:52.151Z,99380.63
2022-10-22T02:24:19.873Z,99317.22
2022-10-22T02:26:55.081Z,99266.47
2022-10-22T02:29:34.432Z,99436.22
2022-10-22T02:32:03.033Z,99423.34
2022-10-22T02:34:32.212Z,99406.59
2022-10-22T02:37:01.247Z,99324.44
2022-10-22T02:39:28.448Z,99381.13
2022-10-22T02:41:57.911Z,99223.91
2022-10-22T02:44:24.943Z,99378.19
2022-10-22T02:46:51.887Z,99251.38
2022-10-22T02:49:18.586Z,99371.22
2022-10-22T02:51:45.777Z,99439.19
2022-10-22T02:54:12.402Z,99284.28
2022-10-22T02:56:39.517Z,99385.84
2022-10-22T02:59:06.145Z,99390.09
2022-10-22T03:01:32.770Z,99270.66
2022-10-22T03:03:59.455Z,99390.03
2022-10-22T03:08:57.793Z,99383.06
2022-10-22T03:11:24.584Z,99307.38
2022-10-22T03:13:51.288Z,99325.28
2022-10-22T03:16:17.913Z,99387.31
2022-10-22T03:18:44.570Z,99369.69
2022-10-22T03:21:26.504Z,99372.28
2022-10-22T03:23:54.083Z,99375.81
2022-10-22T03:26:21.527Z,99369.97
2022-10-22T03:28:48.713Z,99357.16
2022-10-22T03:31:15.483Z,99350.34
2022-10-22T03:33:42.090Z,99333.13
2022-10-22T03:36:09.450Z,99144.91
2022-10-22T03:38:39.542Z,99374.84
2022-10-22T03:41:06.578Z,99330.56
2022-10-22T03:43:35.758Z,99371.22
2022-10-22T03:46:02.431Z,99284.47
2022-10-22T03:48:29.527Z,99360.91
2022-10-22T03:50:56.211Z,99263.47
2022-10-22T03:53:23.024Z,99361.63
2022-10-22T03:55:49.705Z,99346.09
2022-10-22T03:58:16.366Z,99267.53
2022-10-22T04:00:43.086Z,99331.31
2022-10-22T04:03:09.815Z,99284.63
2022-10-22T04:05:36.336Z,99334.94
2022-10-22T04:08:03.096Z,99331.91
2022-10-22T04:10:29.676Z,99294.50
2022-10-22T04:12:56.350Z,99320.31
2022-10-22T04:15:23.573Z,99329.50
2022-10-22T04:17:50.180Z,99320.88
2022-10-22T04:20:16.913Z,99285.88
2022-10-22T04:22:43.515Z,99326.78
2022-10-22T04:25:10.072Z,99339.47
2022-10-22T04:27:36.938Z,99320.31
2022-10-22T04:30:06.534Z,99320.38
2022-10-22T04:32:33.262Z,99330.75
2022-10-22T04:34:59.861Z,99343.50
2022-10-22T04:37:26.840Z,99330.34
2022-10-22T04:39:53.422Z,99326.56
2022-10-22T04:42:20.071Z,99318.63
2022-10-22T04:44:46.666Z,99303.53
2022-10-22T04:47:13.258Z,99061.69
2022-10-22T04:49:40.258Z,99194.88
2022-10-22T04:52:06.951Z,99229.22
2022-10-22T04:54:33.609Z,99323.78
2022-10-22T04:57:00.520Z,99198.25
2022-10-22T04:59:27.227Z,99333.25
2022-10-22T05:01:53.864Z,99157.34
2022-10-22T05:04:20.476Z,99077.06
2022-10-22T05:06:47.261Z,99344.50
2022-10-22T05:09:19.683Z,99184.56
2022-10-22T05:11:49.266Z,99332.72
2022-10-22T05:14:18.580Z,99307.91
2022-10-22T05:16:48.175Z,99308.69
2022-10-22T05:19:18.058Z,99309.84
2022-10-22T05:21:44.817Z,99313.25
2022-10-22T05:24:11.523Z,99307.41
2022-10-22T05:26:38.220Z,99309.22
2022-10-22T05:29:04.849Z,99056.00
2022-10-22T05:31:31.461Z,99252.28
2022-10-22T05:33:58.256Z,99305.91
2022-10-22T05:36:25.154Z,99260.84
2022-10-22T05:38:52.068Z,99169.84
2022-10-22T05:41:21.773Z,99302.28
2022-10-22T05:43:49.045Z,99168.47
2022-10-22T05:46:23.031Z,99302.47
2022-10-22T05:48:55.181Z,99282.31
2022-10-22T05:51:22.770Z,99216.16
2022-10-22T05:53:52.506Z,99213.16
2022-10-22T05:56:19.174Z,99278.19
2022-10-22T05:58:46.208Z,99142.88
2022-10-22T06:01:16.117Z,99276.31
2022-10-22T06:03:43.933Z,99247.81
2022-10-22T06:06:19.538Z,99339.53
2022-10-22T06:08:51.064Z,99278.31
2022-10-22T06:11:19.101Z,99285.75
2022-10-22T06:13:46.896Z,99223.09
2022-10-22T06:16:13.967Z,99278.19
2022-10-22T06:18:40.890Z,99284.31
2022-10-22T06:21:10.712Z,99206.84
2022-10-22T06:23:38.639Z,99286.25
2022-10-22T06:26:05.967Z,99286.72
2022-10-22T06:28:33.779Z,99289.22
2022-10-22T06:31:01.882Z,99280.47
2022-10-22T06:33:31.137Z,99228.88
2022-10-22T06:36:07.976Z,99271.50
2022-10-22T06:38:34.773Z,99202.50
2022-10-22T06:41:11.158Z,99287.69
2022-10-22T06:43:37.955Z,99231.44
2022-10-22T06:46:07.470Z,99277.84
2022-10-22T06:48:36.052Z,99153.28
2022-10-22T06:51:12.307Z,99246.00
2022-10-22T06:53:40.474Z,99212.38
2022-10-22T06:56:20.982Z,98966.63
2022-10-22T06:58:49.217Z,99278.19
2022-10-22T07:01:17.691Z,99262.81
2022-10-22T07:03:44.613Z,99111.50
2022-10-22T07:06:14.924Z,99191.84
2022-10-22T07:08:41.794Z,99254.53
2022-10-22T07:11:18.140Z,99255.53
2022-10-22T07:13:54.216Z,99216.06
2022-10-22T07:16:22.315Z,99248.22
2022-10-22T07:18:49.035Z,99250.66
2022-10-22T07:21:18.616Z,99250.22
2022-10-22T07:23:45.959Z,99249.81
2022-10-22T07:26:17.146Z,99175.34
2022-10-22T07:28:43.914Z,99247.63
2022-10-22T07:31:12.896Z,99212.41
2022-10-22T07:33:42.252Z,99210.19
2022-10-22T07:36:17.346Z,99141.50
2022-10-22T07:38:50.007Z,99266.44
2022-10-22T07:41:17.164Z,99238.03
2022-10-22T07:43:46.601Z,99235.34
2022-10-22T07:46:14.849Z,99173.53
2022-10-22T07:48:47.887Z,99200.44
2022-10-22T07:51:20.935Z,99144.56
2022-10-22T07:53:48.200Z,99231.19
2022-10-22T07:56:18.835Z,99232.44
2022-10-22T07:58:45.815Z,99233.84
2022-10-22T08:01:12.487Z,99137.06
2022-10-22T08:03:39.338Z,99099.16
2022-10-22T08:06:06.655Z,99226.00
2022-10-22T08:08:36.392Z,99233.78
2022-10-22T08:11:03.410Z,99231.59
2022-10-22T08:13:31.013Z,99232.59
2022-10-22T08:16:01.806Z,99237.28
2022-10-22T08:18:29.483Z,99224.09
2022-10-22T08:20:56.647Z,99228.09
2022-10-22T08:23:27.444Z,99212.75
2022-10-22T08:25:55.868Z,99227.75
2022-10-22T08:28:22.625Z,99230.44
2022-10-22T08:30:49.382Z,99145.81
2022-10-22T08:33:16.022Z,99230.53
2022-10-22T08:35:47.205Z,99229.09
2022-10-22T08:38:13.851Z,99190.25
2022-10-22T08:40:41.138Z,99216.22
2022-10-22T08:43:32.925Z,99225.19
2022-10-22T08:46:05.649Z,99177.00
2022-10-22T08:48:32.379Z,99231.69
2022-10-22T08:50:59.242Z,99142.09
2022-10-22T08:53:37.447Z,99182.91
2022-10-22T08:56:04.524Z,99240.13
2022-10-22T08:58:49.627Z,99240.59
2022-10-22T09:01:27.367Z,99189.53
2022-10-22T09:04:22.113Z,99280.75
2022-10-22T09:06:52.151Z,99235.34
2022-10-22T09:09:32.443Z,99190.97
2022-10-22T09:12:01.349Z,99229.88
2022-10-22T09:14:30.443Z,99234.13
2022-10-22T09:17:13.766Z,99230.78
2022-10-22T09:19:56.737Z,99127.75
2022-10-22T09:22:44.981Z,99224.81
2022-10-22T09:25:29.229Z,99205.72
2022-10-22T09:27:58.639Z,99233.88
2022-10-22T09:30:29.912Z,99141.13
2022-10-22T09:33:02.875Z,99237.53
2022-10-22T09:35:35.011Z,99159.66
2022-10-22T09:38:07.800Z,99074.97
2022-10-22T09:40:46.817Z,99265.44
2022-10-22T09:43:14.871Z,99222.44
2022-10-22T09:45:42.826Z,99223.38
2022-10-22T09:48:20.916Z,99223.41
2022-10-22T09:50:55.417Z,99217.34
2022-10-22T09:53:26.618Z,99226.63
2022-10-22T09:58:28.754Z,99132.25
2022-10-22T10:01:00.677Z,99207.97
2022-10-22T10:03:33.006Z,99176.34
2022-10-22T10:06:05.769Z,99186.97
2022-10-22T10:08:33.388Z,99152.13
2022-10-22T10:11:11.059Z,99219.38
2022-10-22T10:13:51.832Z,99203.81
2022-10-22T10:16:37.357Z,99196.31
2022-10-22T10:19:09.711Z,99200.41
2022-10-22T10:21:47.001Z,99054.66
2022-10-22T10:24:23.530Z,99217.31
2022-10-22T10:27:09.606Z,99199.47
2022-10-22T10:29:54.427Z,99187.38
2022-10-22T10:33:04.690Z,99184.22
2022-10-22T10:35:37.593Z,98821.66
2022-10-22T10:38:25.917Z,99172.75
2022-10-22T10:41:23.566Z,99167.38
2022-10-22T10:44:14.724Z,99165.81
2022-10-22T10:46:59.303Z,99164.72
2022-10-22T10:49:31.379Z,99166.91
2022-10-22T10:52:24.883Z,99171.00
2022-10-22T10:55:03.835Z,99158.97
2022-10-22T10:57:46.893Z,99164.25
2022-10-22T11:00:22.580Z,99032.44
2022-10-22T11:03:22.440Z,99162.22
2022-10-22T11:06:02.280Z,99156.47
2022-10-22T11:08:37.400Z,99154.28
2022-10-22T11:11:04.303Z,99163.34
2022-10-22T11:13:37.110Z,99156.50
2022-10-22T11:16:19.156Z,99174.78
2022-10-22T11:19:06.075Z,99206.19
2022-10-22T11:21:40.354Z,99162.78
2022-10-22T11:24:27.876Z,99168.66
2022-10-22T11:27:30.101Z,99162.13
2022-10-22T11:30:03.822Z,99165.16
2022-10-22T11:32:32.983Z,99176.97
2022-10-22T11:35:03.757Z,99161.69
2022-10-22T11:37:34.903Z,99156.63
2022-10-22T11:40:38.379Z,99155.78
2022-10-22T11:43:10.175Z,98926.25
2022-10-22T11:45:42.337Z,99137.28
2022-10-22T11:48:11.944Z,99164.66
2022-10-22T11:50:41.339Z,99162.34
2022-10-22T11:53:14.200Z,99154.81
2022-10-22T11:55:51.371Z,99153.31
2022-10-22T11:58:44.821Z,99140.97
2022-10-22T12:01:11.534Z,99141.53
2022-10-22T12:03:51.221Z,99132.28
2022-10-22T12:06:26.563Z,99158.44
2022-10-22T12:08:59.939Z,99125.06
2022-10-22T12:11:45.159Z,99135.69
2022-10-22T12:14:14.999Z,99137.28
2022-10-22T12:16:57.278Z,99131.63
2022-10-22T12:19:31.015Z,99101.94
2022-10-22T12:22:02.327Z,99067.69
2022-10-22T12:24:32.906Z,99041.50
2022-10-22T12:26:59.803Z,99082.44
2022-10-22T12:29:26.803Z,99003.09
2022-10-22T12:31:54.959Z,99122.38
2022-10-22T12:34:24.779Z,99135.75
2022-10-22T12:36:53.454Z,99167.56
2022-10-22T12:39:25.167Z,99041.59
2022-10-22T12:41:53.919Z,98899.03
2022-10-22T12:44:20.767Z,99112.31
2022-10-22T12:46:52.981Z,99012.88
2022-10-22T12:49:40.842Z,99129.47
2022-10-22T12:52:15.985Z,99095.16
2022-10-22T12:54:47.798Z,99122.66
2022-10-22T12:57:18.750Z,99119.25
2022-10-22T12:59:49.964Z,99063.94
2022-10-22T13:02:25.407Z,99113.03
2022-10-22T13:05:16.880Z,98858.06
2022-10-22T13:07:48.298Z,99092.94
2022-10-22T13:10:24.077Z,99097.09
2022-10-22T13:12:55.461Z,99178.66
2022-10-22T13:15:22.738Z,99113.97
2022-10-22T13:17:50.033Z,99119.28
2022-10-22T13:20:22.993Z,99115.97
2022-10-22T13:23:00.464Z,99148.63
2022-10-22T13:25:30.832Z,99040.44
2022-10-22T13:28:19.642Z,99021.84
2022-10-22T13:31:17.644Z,99028.31
2022-10-22T13:33:46.997Z,99106.03
2022-10-22T13:36:15.763Z,98936.19
2022-10-22T13:38:44.318Z,99081.34
2022-10-22T13:41:28.641Z,98737.38
2022-10-22T13:43:55.720Z,98959.00
2022-10-22T13:46:24.339Z,99085.44
2022-10-22T13:48:54.291Z,98803.47
2022-10-22T13:51:24.011Z,99036.16
2022-10-22T13:53:53.400Z,99077.56
2022-10-22T13:56:21.861Z,99088.97
2022-10-22T13:58:48.707Z,98962.88
2022-10-22T14:01:28.461Z,98955.97
2022-10-22T14:03:58.804Z,99085.38
2022-10-22T14:06:29.966Z,99094.16
2022-10-22T14:09:08.693Z,99091.00
2022-10-22T14:11:35.585Z,99076.09
2022-10-22T14:14:08.741Z,99075.53
2022-10-22T14:16:37.844Z,98974.97
2022-10-22T14:19:07.487Z,99048.47
2022-10-22T14:21:37.205Z,99064.25
2022-10-22T14:24:06.160Z,99070.34
2022-10-22T14:26:35.263Z,98936.88
2022-10-22T14:29:11.497Z,99060.38
2022-10-22T14:31:44.521Z,99060.28
2022-10-22T14:34:14.332Z,99044.69
2022-10-22T14:36:43.575Z,98997.28
2022-10-22T14:39:10.752Z,98943.31
2022-10-22T14:41:37.504Z,99047.63
2022-10-22T14:44:04.571Z,99028.53
2022-10-22T14:46:31.318Z,98961.59
2022-10-22T14:48:58.074Z,99034.78
2022-10-22T14:51:24.766Z,99018.56
2022-10-22T14:53:51.387Z,99040.34
2022-10-22T14:56:22.607Z,99032.66
2022-10-22T14:58:54.475Z,99022.63
2022-10-22T15:01:21.169Z,98934.66
2022-10-22T15:03:48.866Z,99037.31
2022-10-22T15:06:15.747Z,99052.47
2022-10-22T15:08:42.543Z,99007.66
2022-10-22T15:11:12.230Z,99078.31
2022-10-22T15:13:41.259Z,98933.72
2022-10-22T15:16:10.357Z,98992.06
2022-10-22T15:18:37.006Z,98963.50
2022-10-22T15:21:06.904Z,98980.59
2022-10-22T15:23:33.995Z,98958.78
2022-10-22T15:26:00.657Z,99036.63
2022-10-22T15:28:27.655Z,99036.06
2022-10-22T15:30:56.658Z,98930.28
2022-10-22T15:33:24.054Z,99046.19
2022-10-22T15:35:50.836Z,99036.50
2022-10-22T15:38:19.118Z,99038.59
2022-10-22T15:40:46.150Z,98885.34
2022-10-22T15:43:15.372Z,99028.09
2022-10-22T15:45:42.026Z,98892.47
2022-10-22T15:48:10.488Z,98983.88
2022-10-22T15:50:39.413Z,98989.19
2022-10-22T15:53:06.308Z,98763.66
2022-10-22T15:55:35.750Z,99015.72
2022-10-22T15:58:03.383Z,99015.13
2022-10-22T16:00:30.900Z,98978.88
2022-10-22T16:02:57.487Z,98993.75
2022-10-22T16:05:24.259Z,99015.59
2022-10-22T16:07:53.130Z,98970.78
2022-10-22T16:10:19.735Z,99022.91
2022-10-22T16:12:46.379Z,98969.88
2022-10-22T16:15:13.072Z,98909.59
2022-10-22T16:17:39.652Z,99043.09
2022-10-22T16:20:06.912Z,99048.34
2022-10-22T16:22:34.147Z,98879.75
2022-10-22T16:25:00.769Z,99041.00
2022-10-22T16:27:27.591Z,99041.00
2022-10-22T16:29:54.392Z,99040.81
2022-10-22T16:32:21.091Z,99035.56
2022-10-22T16:34:47.895Z,98890.03
2022-10-22T16:37:14.617Z,99037.66
2022-10-22T16:39:41.202Z,98961.38
2022-10-22T16:42:07.951Z,99038.25
2022-10-22T16:44:34.705Z,99003.44
2022-10-22T16:47:01.326Z,99006.00
2022-10-22T16:49:28.047Z,99024.59
2022-10-22T16:51:54.654Z,99032.69
2022-10-22T16:54:21.956Z,99043.94
2022-10-22T16:56:49.025Z,99039.53
2022-10-22T16:59:15.803Z,98987.63
2022-10-22T17:01:42.568Z,99002.13
2022-10-22T17:04:09.765Z,99041.19
2022-10-22T17:06:37.461Z,99042.69
2022-10-22T17:09:04.615Z,98983.72
2022-10-22T17:11:36.242Z,99031.69
2022-10-22T17:14:04.939Z,99036.03
2022-10-22T17:16:31.777Z,99013.09
2022-10-22T17:18:58.534Z,99016.06
2022-10-22T17:21:25.649Z,99024.22
2022-10-22T17:23:56.904Z,98972.78
2022-10-22T17:26:26.477Z,99007.09
2022-10-22T17:28:53.595Z,98972.38
2022-10-22T17:31:26.372Z,98957.72
2022-10-22T17:33:55.514Z,98843.69
2022-10-22T17:36:24.206Z,99042.16
2022-10-22T17:38:58.083Z,99037.34
2022-10-22T17:41:28.099Z,99036.59
2022-10-22T17:43:55.830Z,98956.56
2022-10-22T17:46:24.972Z,98996.00
2022-10-22T17:48:59.816Z,99029.44
2022-10-22T17:51:29.074Z,99019.28
2022-10-22T17:53:55.732Z,99018.53
2022-10-22T17:56:25.882Z,99019.53
2022-10-22T17:58:53.127Z,99020.72
2022-10-22T18:01:25.336Z,98977.13
2022-10-22T18:03:53.260Z,99008.38
2022-10-22T18:06:19.977Z,99000.28
2022-10-22T18:08:46.714Z,99006.84
2022-10-22T18:11:17.790Z,98892.41
2022-10-22T18:13:44.999Z,98982.19
2022-10-22T18:16:12.279Z,98942.81
2022-10-22T18:18:39.078Z,98870.16
2022-10-22T18:21:07.059Z,98871.00
2022-10-22T18:23:34.904Z,98945.06
2022-10-22T18:26:05.100Z,98871.91
2022-10-22T18:28:32.181Z,98750.53
2022-10-22T18:30:58.908Z,98990.56
2022-10-22T18:33:25.824Z,98950.50
2022-10-22T18:35:52.684Z,98794.00
2022-10-22T18:38:21.898Z,98979.63
2022-10-22T18:40:49.786Z,98905.03
2022-10-22T18:43:17.472Z,98981.28
2022-10-22T18:45:46.159Z,98990.44
2022-10-22T18:48:14.600Z,98952.53
2022-10-22T18:50:41.660Z,98943.28
2022-10-22T18:53:16.831Z,98701.50
2022-10-22T18:55:44.762Z,98746.34
2022-10-22T18:58:11.438Z,98798.16
2022-10-22T19:00:38.612Z,98856.69
2022-10-22T19:03:05.555Z,98786.34
2022-10-22T19:05:32.187Z,98808.69
2022-10-22T19:07:59.132Z,98941.63
2022-10-22T19:10:28.134Z,98776.56
2022-10-22T19:12:57.057Z,98944.44
2022-10-22T19:15:23.776Z,98941.56
2022-10-22T19:17:52.643Z,98911.47
2022-10-22T19:20:19.296Z,98942.19
2022-10-22T19:22:46.000Z,98936.34
2022-10-22T19:25:12.791Z,98801.22
2022-10-22T19:27:40.158Z,98936.41
2022-10-22T19:30:07.901Z,98866.75
2022-10-22T19:32:34.952Z,98765.81
2022-10-22T19:35:02.064Z,98921.75
2022-10-22T19:37:28.754Z,98921.84
2022-10-22T19:39:56.491Z,98926.00
2022-10-22T19:42:23.210Z,98924.34
2022-10-22T19:44:49.992Z,98883.56
2022-10-22T19:47:20.016Z,98869.19
2022-10-22T19:49:46.667Z,98923.59
2022-10-22T19:52:13.417Z,98922.00
2022-10-22T19:54:41.745Z,98925.44
2022-10-22T19:57:08.809Z,98908.38
2022-10-22T19:59:35.952Z,98850.19
2022-10-22T20:02:02.754Z,98783.16
2022-10-22T20:04:30.067Z,98910.47
2022-10-22T20:06:56.749Z,98579.56
2022-10-22T20:09:25.190Z,98808.91
2022-10-22T20:11:51.816Z,98807.81
2022-10-22T20:14:18.687Z,98837.88
2022-10-22T20:16:45.599Z,98772.22
2022-10-22T20:19:16.284Z,98783.59
2022-10-22T20:21:44.007Z,98864.94
2022-10-22T20:24:11.193Z,98874.25
2022-10-22T20:26:37.983Z,98859.47
2022-10-22T20:29:04.763Z,98919.53
2022-10-22T20:31:32.994Z,98860.69
2022-10-22T20:34:01.311Z,98911.38
2022-10-22T20:36:30.733Z,98986.31
2022-10-22T20:39:04.851Z,98864.91
2022-10-22T20:41:34.029Z,98813.38
2022-10-22T20:44:01.224Z,98770.44
2022-10-22T20:46:30.840Z,98909.69
2022-10-22T20:49:11.134Z,98879.31
2022-10-22T20:51:38.395Z,98909.03
2022-10-22T20:54:07.365Z,98874.91
2022-10-22T20:56:36.029Z,98849.44
2022-10-22T20:59:07.983Z,98908.94
2022-10-22T21:01:44.479Z,98934.69
2022-10-22T21:04:11.357Z,98899.84
2022-10-22T21:06:39.078Z,98897.06
2022-10-22T21:09:07.150Z,98913.22
2022-10-22T21:11:34.703Z,98857.50
2022-10-22T21:14:01.588Z,98813.41
2022-10-22T21:16:30.149Z,98882.94
2022-10-22T21:18:59.665Z,98777.47
2022-10-22T21:21:26.880Z,98895.97
2022-10-22T21:23:53.767Z,98841.63
2022-10-22T21:26:21.038Z,98877.34
2022-10-22T21:28:47.942Z,98881.94
2022-10-22T21:31:26.247Z,98637.34
2022-10-22T21:33:53.877Z,98764.38
2022-10-22T21:36:23.270Z,98830.78
2022-10-22T21:38:53.971Z,98861.50
2022-10-22T21:41:23.241Z,98910.75
2022-10-22T21:43:57.351Z,98864.50
2022-10-22T21:46:26.712Z,98865.72
2022-10-22T21:49:01.979Z,98850.50
2022-10-22T21:51:31.333Z,98884.53
2022-10-22T21:53:58.504Z,98732.41
2022-10-22T21:56:32.524Z,98737.09
2022-10-22T21:58:59.679Z,98844.22
2022-10-22T22:01:26.721Z,98829.63
2022-10-22T22:03:53.764Z,98843.75
2022-10-22T22:06:24.167Z,98834.88
2022-10-22T22:08:54.244Z,98841.78
2022-10-22T22:11:24.287Z,98923.78
2022-10-22T22:13:52.313Z,98795.13
2022-10-22T22:16:25.539Z,98833.59
2022-10-22T22:18:56.925Z,98833.72
2022-10-22T22:21:23.647Z,98830.34
2022-10-22T22:23:51.062Z,98793.63
2022-10-22T22:26:25.265Z,98834.28
2022-10-22T22:28:55.973Z,98586.09
2022-10-22T22:31:25.556Z,98764.78
2022-10-22T22:34:01.350Z,98705.19
2022-10-22T22:36:28.716Z,98715.50
2022-10-22T22:38:56.583Z,98828.47
2022-10-22T22:41:23.491Z,98816.28
2022-10-22T22:43:50.169Z,98821.78
2022-10-22T22:46:16.866Z,98820.69
2022-10-22T22:48:43.495Z,98806.81
2022-10-22T22:51:10.882Z,98794.38
2022-10-22T22:53:37.607Z,98629.03
2022-10-22T22:56:06.019Z,98812.44
2022-10-22T22:58:32.749Z,98813.28
2022-10-22T23:01:23.547Z,98816.53
2022-10-22T23:03:56.370Z,98743.84
2022-10-22T23:06:26.346Z,98805.91
2022-10-22T23:08:54.165Z,98813.41
2022-10-22T23:11:22.362Z,98680.56
2022-10-22T23:13:55.420Z,98811.16
2022-10-22T23:16:24.419Z,98702.88
2022-10-22T23:18:53.754Z,98812.16
2022-10-22T23:21:24.452Z,98806.16
2022-10-22T23:23:53.968Z,98686.34
2022-10-22T23:26:24.819Z,98758.06
2022-10-22T23:28:51.738Z,98817.75
2022-10-22T23:31:20.049Z,98782.63
2022-10-22T23:33:47.496Z,98811.03
2022-10-22T23:36:17.635Z,98701.47
2022-10-22T23:38:44.280Z,98726.56
2022-10-22T23:41:13.595Z,98711.47
2022-10-22T23:43:40.335Z,98634.94
2022-10-22T23:46:10.644Z,98774.44
2022-10-22T23:48:41.414Z,98711.88
2022-10-22T23:51:11.091Z,98756.09
2022-10-22T23:53:38.502Z,98765.75
2022-10-22T23:56:11.013Z,98804.94
2022-10-22T23:58:37.973Z,98693.75
